sensor_id;sensor_type;location;lat;lon;timestamp;pressure;altitude;pressure_sealevel;temperature;humidity
62201;BME280;48197;42.732;27.192;2023-05-20T00:01:03;99810.88;;;16.32;87.72
62201;BME280;48197;42.732;27.192;2023-05-20T00:03:30;99806.53;;;16.31;87.88
62201;BME280;48197;42.732;27.192;2023-05-20T00:05:57;99811.00;;;16.28;88.12
62201;BME280;48197;42.732;27.192;2023-05-20T00:08:25;99812.63;;;16.13;89.44
62201;BME280;48197;42.732;27.192;2023-05-20T00:10:52;99821.59;;;16.04;90.45
62201;BME280;48197;42.732;27.192;2023-05-20T00:13:18;99812.91;;;16.02;90.75
62201;BME280;48197;42.732;27.192;2023-05-20T00:15:45;99813.69;;;16.03;90.58
62201;BME280;48197;42.732;27.192;2023-05-20T00:18:12;99814.91;;;16.02;91.14
62201;BME280;48197;42.732;27.192;2023-05-20T00:20:39;99810.31;;;15.95;91.45
62201;BME280;48197;42.732;27.192;2023-05-20T00:23:06;99792.72;;;15.98;91.21
62201;BME280;48197;42.732;27.192;2023-05-20T00:25:33;99789.00;;;16.18;89.59
62201;BME280;48197;42.732;27.192;2023-05-20T00:28:00;99784.22;;;16.31;88.31
62201;BME280;48197;42.732;27.192;2023-05-20T00:30:27;99782.00;;;16.26;88.95
62201;BME280;48197;42.732;27.192;2023-05-20T00:32:54;99788.31;;;16.13;89.82
62201;BME280;48197;42.732;27.192;2023-05-20T00:35:21;99786.94;;;16.05;90.89
62201;BME280;48197;42.732;27.192;2023-05-20T00:37:48;99788.16;;;16.04;91.26
62201;BME280;48197;42.732;27.192;2023-05-20T00:40:15;99795.50;;;15.98;91.68
62201;BME280;48197;42.732;27.192;2023-05-20T00:42:42;99798.53;;;16.04;91.59
62201;BME280;48197;42.732;27.192;2023-05-20T00:45:09;99785.63;;;16.10;91.17
62201;BME280;48197;42.732;27.192;2023-05-20T00:47:36;99789.81;;;16.02;91.91
62201;BME280;48197;42.732;27.192;2023-05-20T00:50:04;99790.59;;;16.02;91.91
62201;BME280;48197;42.732;27.192;2023-05-20T00:52:32;99785.41;;;16.17;90.79
62201;BME280;48197;42.732;27.192;2023-05-20T00:54:59;99785.91;;;16.28;90.21
62201;BME280;48197;42.732;27.192;2023-05-20T00:57:26;99790.91;;;16.21;90.83
62201;BME280;48197;42.732;27.192;2023-05-20T00:59:53;99784.16;;;16.05;92.37
62201;BME280;48197;42.732;27.192;2023-05-20T01:02:20;99777.69;;;15.79;94.87
62201;BME280;48197;42.732;27.192;2023-05-20T01:04:46;99769.94;;;15.70;96.55
62201;BME280;48197;42.732;27.192;2023-05-20T01:07:14;99770.31;;;15.56;98.68
62201;BME280;48197;42.732;27.192;2023-05-20T01:09:41;99766.56;;;15.63;98.91
62201;BME280;48197;42.732;27.192;2023-05-20T01:12:12;99761.06;;;15.76;98.54
62201;BME280;48197;42.732;27.192;2023-05-20T01:14:42;99759.41;;;15.78;98.41
62201;BME280;48197;42.732;27.192;2023-05-20T01:17:10;99764.53;;;15.80;98.49
62201;BME280;48197;42.732;27.192;2023-05-20T01:19:40;99765.31;;;15.80;98.83
62201;BME280;48197;42.732;27.192;2023-05-20T01:22:10;99768.38;;;15.86;98.32
62201;BME280;48197;42.732;27.192;2023-05-20T01:24:41;99768.72;;;15.88;98.19
62201;BME280;48197;42.732;27.192;2023-05-20T01:27:08;99763.31;;;15.81;98.98
62201;BME280;48197;42.732;27.192;2023-05-20T01:29:36;99760.88;;;15.83;99.09
62201;BME280;48197;42.732;27.192;2023-05-20T01:32:12;99772.28;;;15.88;99.03
62201;BME280;48197;42.732;27.192;2023-05-20T01:34:41;99763.47;;;15.90;98.43
62201;BME280;48197;42.732;27.192;2023-05-20T01:37:09;99764.59;;;15.92;98.45
62201;BME280;48197;42.732;27.192;2023-05-20T01:39:36;99765.16;;;15.87;98.91
62201;BME280;48197;42.732;27.192;2023-05-20T01:42:07;99772.56;;;15.78;99.88
62201;BME280;48197;42.732;27.192;2023-05-20T01:44:34;99769.97;;;15.54;100.00
62201;BME280;48197;42.732;27.192;2023-05-20T01:47:01;99770.25;;;15.43;100.00
62201;BME280;48197;42.732;27.192;2023-05-20T01:49:28;99760.31;;;15.42;100.00
62201;BME280;48197;42.732;27.192;2023-05-20T01:51:56;99768.91;;;15.64;100.00
62201;BME280;48197;42.732;27.192;2023-05-20T01:54:23;99773.44;;;15.75;100.00
62201;BME280;48197;42.732;27.192;2023-05-20T01:56:49;99779.06;;;15.71;100.00
62201;BME280;48197;42.732;27.192;2023-05-20T01:59:16;99796.16;;;15.73;100.00
62201;BME280;48197;42.732;27.192;2023-05-20T02:01:44;99791.97;;;15.65;100.00
62201;BME280;48197;42.732;27.192;2023-05-20T02:04:11;99784.59;;;15.58;100.00
62201;BME280;48197;42.732;27.192;2023-05-20T02:06:37;99791.47;;;15.54;100.00
62201;BME280;48197;42.732;27.192;2023-05-20T02:09:04;99795.66;;;15.45;100.00
62201;BME280;48197;42.732;27.192;2023-05-20T02:11:31;99800.59;;;15.38;100.00
62201;BME280;48197;42.732;27.192;2023-05-20T02:13:58;99806.78;;;15.29;100.00
62201;BME280;48197;42.732;27.192;2023-05-20T02:16:25;99802.00;;;15.13;100.00
62201;BME280;48197;42.732;27.192;2023-05-20T02:18:52;99796.69;;;15.02;100.00
62201;BME280;48197;42.732;27.192;2023-05-20T02:21:19;99793.44;;;15.04;100.00
62201;BME280;48197;42.732;27.192;2023-05-20T02:23:46;99796.69;;;15.02;100.00
62201;BME280;48197;42.732;27.192;2023-05-20T02:26:12;99799.91;;;15.01;100.00
62201;BME280;48197;42.732;27.192;2023-05-20T02:28:39;99794.75;;;14.99;100.00
62201;BME280;48197;42.732;27.192;2023-05-20T02:31:12;99794.31;;;15.01;100.00
62201;BME280;48197;42.732;27.192;2023-05-20T02:33:38;99793.91;;;15.02;100.00
62201;BME280;48197;42.732;27.192;2023-05-20T02:36:05;99793.91;;;15.02;100.00
62201;BME280;48197;42.732;27.192;2023-05-20T02:38:32;99795.72;;;15.09;100.00
62201;BME280;48197;42.732;27.192;2023-05-20T02:40:59;99796.25;;;15.37;100.00
62201;BME280;48197;42.732;27.192;2023-05-20T02:43:26;99794.59;;;15.56;100.00
62201;BME280;48197;42.732;27.192;2023-05-20T02:45:53;99798.31;;;15.65;100.00
62201;BME280;48197;42.732;27.192;2023-05-20T02:48:19;99800.69;;;15.67;100.00
62201;BME280;48197;42.732;27.192;2023-05-20T02:50:46;99800.53;;;15.58;100.00
62201;BME280;48197;42.732;27.192;2023-05-20T02:53:13;99806.94;;;15.55;100.00
62201;BME280;48197;42.732;27.192;2023-05-20T02:55:44;99813.84;;;15.50;100.00
62201;BME280;48197;42.732;27.192;2023-05-20T02:58:12;99810.34;;;15.46;100.00
62201;BME280;48197;42.732;27.192;2023-05-20T03:00:39;99820.88;;;15.38;100.00
62201;BME280;48197;42.732;27.192;2023-05-20T03:03:06;99830.47;;;15.37;100.00
62201;BME280;48197;42.732;27.192;2023-05-20T03:05:33;99830.03;;;15.39;100.00
62201;BME280;48197;42.732;27.192;2023-05-20T03:08:09;99836.81;;;15.38;100.00
62201;BME280;48197;42.732;27.192;2023-05-20T03:10:36;99840.81;;;15.37;100.00
62201;BME280;48197;42.732;27.192;2023-05-20T03:13:04;99849.94;;;15.37;100.00
62201;BME280;48197;42.732;27.192;2023-05-20T03:15:34;99849.94;;;15.37;100.00
62201;BME280;48197;42.732;27.192;2023-05-20T03:18:01;99844.81;;;15.36;100.00
62201;BME280;48197;42.732;27.192;2023-05-20T03:20:29;99838.47;;;15.35;100.00
62201;BME280;48197;42.732;27.192;2023-05-20T03:22:56;99843.69;;;15.33;100.00
62201;BME280;48197;42.732;27.192;2023-05-20T03:25:23;99831.66;;;15.36;100.00
62201;BME280;48197;42.732;27.192;2023-05-20T03:27:50;99830.38;;;15.41;100.00
62201;BME280;48197;42.732;27.192;2023-05-20T03:30:16;99825.25;;;15.39;100.00
62201;BME280;48197;42.732;27.192;2023-05-20T03:32:43;99822.44;;;15.39;100.00
62201;BME280;48197;42.732;27.192;2023-05-20T03:35:10;99828.38;;;15.41;100.00
62201;BME280;48197;42.732;27.192;2023-05-20T03:37:37;99822.38;;;15.43;100.00
62201;BME280;48197;42.732;27.192;2023-05-20T03:40:05;99839.88;;;15.43;100.00
62201;BME280;48197;42.732;27.192;2023-05-20T03:42:32;99833.75;;;15.48;100.00
62201;BME280;48197;42.732;27.192;2023-05-20T03:45:00;99828.03;;;15.56;100.00
62201;BME280;48197;42.732;27.192;2023-05-20T03:47:26;99838.09;;;15.66;100.00
62201;BME280;48197;42.732;27.192;2023-05-20T03:49:53;99843.88;;;15.75;100.00
62201;BME280;48197;42.732;27.192;2023-05-20T03:52:20;99845.00;;;15.78;100.00
62201;BME280;48197;42.732;27.192;2023-05-20T03:54:47;99844.22;;;15.77;100.00
62201;BME280;48197;42.732;27.192;2023-05-20T03:57:14;99837.59;;;15.71;100.00
62201;BME280;48197;42.732;27.192;2023-05-20T03:59:42;99837.09;;;15.60;100.00
62201;BME280;48197;42.732;27.192;2023-05-20T04:02:09;99831.66;;;15.52;100.00
62201;BME280;48197;42.732;27.192;2023-05-20T04:04:36;99839.59;;;15.54;100.00
62201;BME280;48197;42.732;27.192;2023-05-20T04:07:03;99840.66;;;15.60;100.00
62201;BME280;48197;42.732;27.192;2023-05-20T04:09:30;99844.28;;;15.57;100.00
62201;BME280;48197;42.732;27.192;2023-05-20T04:11:56;99838.13;;;15.49;100.00
62201;BME280;48197;42.732;27.192;2023-05-20T04:14:23;99847.25;;;15.50;100.00
62201;BME280;48197;42.732;27.192;2023-05-20T04:16:50;99845.09;;;15.58;100.00
62201;BME280;48197;42.732;27.192;2023-05-20T04:19:17;99844.47;;;15.66;100.00
62201;BME280;48197;42.732;27.192;2023-05-20T04:21:49;99853.44;;;15.74;100.00
62201;BME280;48197;42.732;27.192;2023-05-20T04:24:16;99856.06;;;15.81;100.00
62201;BME280;48197;42.732;27.192;2023-05-20T04:26:42;99855.53;;;15.86;100.00
62201;BME280;48197;42.732;27.192;2023-05-20T04:29:09;99857.28;;;15.97;100.00
62201;BME280;48197;42.732;27.192;2023-05-20T04:31:37;99861.94;;;16.00;100.00
62201;BME280;48197;42.732;27.192;2023-05-20T04:34:04;99866.06;;;15.95;100.00
62201;BME280;48197;42.732;27.192;2023-05-20T04:36:31;99851.53;;;15.87;100.00
62201;BME280;48197;42.732;27.192;2023-05-20T04:39:00;99850.75;;;15.87;100.00
62201;BME280;48197;42.732;27.192;2023-05-20T04:41:26;99855.97;;;15.85;100.00
62201;BME280;48197;42.732;27.192;2023-05-20T04:43:53;99859.44;;;15.89;100.00
62201;BME280;48197;42.732;27.192;2023-05-20T04:46:25;99866.41;;;15.97;100.00
62201;BME280;48197;42.732;27.192;2023-05-20T04:48:52;99869.53;;;16.16;100.00
62201;BME280;48197;42.732;27.192;2023-05-20T04:51:19;99873.84;;;16.17;100.00
62201;BME280;48197;42.732;27.192;2023-05-20T04:53:46;99872.31;;;16.16;100.00
62201;BME280;48197;42.732;27.192;2023-05-20T04:56:13;99874.97;;;16.19;100.00
62201;BME280;48197;42.732;27.192;2023-05-20T04:58:40;99870.91;;;16.24;100.00
62201;BME280;48197;42.732;27.192;2023-05-20T05:01:07;99869.31;;;16.23;100.00
62201;BME280;48197;42.732;27.192;2023-05-20T05:03:34;99881.16;;;16.27;100.00
62201;BME280;48197;42.732;27.192;2023-05-20T05:06:01;99876.19;;;16.35;100.00
62201;BME280;48197;42.732;27.192;2023-05-20T05:08:28;99875.53;;;16.43;100.00
62201;BME280;48197;42.732;27.192;2023-05-20T05:10:55;99882.25;;;16.46;100.00
62201;BME280;48197;42.732;27.192;2023-05-20T05:13:22;99871.84;;;16.46;100.00
62201;BME280;48197;42.732;27.192;2023-05-20T05:15:56;99867.84;;;16.47;100.00
62201;BME280;48197;42.732;27.192;2023-05-20T05:18:24;99866.72;;;16.45;100.00
62201;BME280;48197;42.732;27.192;2023-05-20T05:20:59;99858.50;;;16.54;100.00
62201;BME280;48197;42.732;27.192;2023-05-20T05:23:26;99859.66;;;16.69;100.00
62201;BME280;48197;42.732;27.192;2023-05-20T05:25:53;99851.84;;;16.64;100.00
62201;BME280;48197;42.732;27.192;2023-05-20T05:28:20;99854.72;;;16.61;100.00
62201;BME280;48197;42.732;27.192;2023-05-20T05:30:48;99856.06;;;16.56;100.00
62201;BME280;48197;42.732;27.192;2023-05-20T05:33:15;99850.94;;;16.67;100.00
62201;BME280;48197;42.732;27.192;2023-05-20T05:35:41;99849.91;;;16.90;100.00
62201;BME280;48197;42.732;27.192;2023-05-20T05:38:08;99852.03;;;16.99;100.00
62201;BME280;48197;42.732;27.192;2023-05-20T05:40:36;99854.81;;;16.99;100.00
62201;BME280;48197;42.732;27.192;2023-05-20T05:43:03;99864.28;;;16.89;100.00
62201;BME280;48197;42.732;27.192;2023-05-20T05:45:29;99874.00;;;16.84;100.00
62201;BME280;48197;42.732;27.192;2023-05-20T05:47:56;99880.53;;;16.65;100.00
62201;BME280;48197;42.732;27.192;2023-05-20T05:50:23;99882.63;;;16.31;100.00
62201;BME280;48197;42.732;27.192;2023-05-20T05:52:50;99887.66;;;15.91;100.00
62201;BME280;48197;42.732;27.192;2023-05-20T05:55:17;99892.94;;;15.36;100.00
62201;BME280;48197;42.732;27.192;2023-05-20T05:57:44;99888.63;;;14.79;100.00
62201;BME280;48197;42.732;27.192;2023-05-20T06:00:11;99892.41;;;14.25;100.00
62201;BME280;48197;42.732;27.192;2023-05-20T06:02:38;99894.84;;;13.99;100.00
62201;BME280;48197;42.732;27.192;2023-05-20T06:05:05;99894.03;;;13.79;100.00
62201;BME280;48197;42.732;27.192;2023-05-20T06:07:32;99884.59;;;13.73;100.00
62201;BME280;48197;42.732;27.192;2023-05-20T06:09:59;99883.47;;;13.70;100.00
62201;BME280;48197;42.732;27.192;2023-05-20T06:12:25;99876.28;;;13.73;100.00
62201;BME280;48197;42.732;27.192;2023-05-20T06:14:52;99867.53;;;13.74;100.00
62201;BME280;48197;42.732;27.192;2023-05-20T06:17:18;99861.53;;;13.76;100.00
62201;BME280;48197;42.732;27.192;2023-05-20T06:19:45;99857.25;;;13.71;100.00
62201;BME280;48197;42.732;27.192;2023-05-20T06:22:12;99843.06;;;13.89;100.00
62201;BME280;48197;42.732;27.192;2023-05-20T06:24:39;99843.50;;;14.07;100.00
62201;BME280;48197;42.732;27.192;2023-05-20T06:27:06;99843.13;;;14.49;100.00
62201;BME280;48197;42.732;27.192;2023-05-20T06:29:33;99838.25;;;15.09;100.00
62201;BME280;48197;42.732;27.192;2023-05-20T06:32:00;99834.97;;;15.64;100.00
62201;BME280;48197;42.732;27.192;2023-05-20T06:34:27;99830.81;;;16.18;100.00
62201;BME280;48197;42.732;27.192;2023-05-20T06:36:53;99836.38;;;16.47;100.00
62201;BME280;48197;42.732;27.192;2023-05-20T06:39:21;99833.50;;;16.63;100.00
62201;BME280;48197;42.732;27.192;2023-05-20T06:41:48;99828.28;;;16.78;100.00
62201;BME280;48197;42.732;27.192;2023-05-20T06:44:14;99816.78;;;16.76;100.00
62201;BME280;48197;42.732;27.192;2023-05-20T06:46:41;99816.69;;;16.67;100.00
62201;BME280;48197;42.732;27.192;2023-05-20T06:49:08;99812.97;;;17.60;100.00
62201;BME280;48197;42.732;27.192;2023-05-20T06:51:35;99809.72;;;19.06;100.00
62201;BME280;48197;42.732;27.192;2023-05-20T06:54:01;99792.50;;;19.26;100.00
62201;BME280;48197;42.732;27.192;2023-05-20T06:56:31;99798.09;;;18.54;100.00
62201;BME280;48197;42.732;27.192;2023-05-20T06:58:58;99808.56;;;17.97;100.00
62201;BME280;48197;42.732;27.192;2023-05-20T07:01:24;99820.78;;;17.90;100.00
62201;BME280;48197;42.732;27.192;2023-05-20T07:03:51;99817.66;;;17.75;100.00
62201;BME280;48197;42.732;27.192;2023-05-20T07:06:18;99804.97;;;17.36;100.00
62201;BME280;48197;42.732;27.192;2023-05-20T07:08:45;99800.84;;;17.28;100.00
62201;BME280;48197;42.732;27.192;2023-05-20T07:11:12;99794.69;;;17.46;100.00
62201;BME280;48197;42.732;27.192;2023-05-20T07:13:38;99789.09;;;17.46;100.00
62201;BME280;48197;42.732;27.192;2023-05-20T07:16:05;99791.97;;;17.55;100.00
62201;BME280;48197;42.732;27.192;2023-05-20T07:18:32;99791.53;;;17.57;100.00
62201;BME280;48197;42.732;27.192;2023-05-20T07:20:59;99797.56;;;17.55;100.00
62201;BME280;48197;42.732;27.192;2023-05-20T07:23:26;99811.16;;;18.13;100.00
62201;BME280;48197;42.732;27.192;2023-05-20T07:25:53;99812.88;;;18.33;100.00
62201;BME280;48197;42.732;27.192;2023-05-20T07:28:20;99815.78;;;18.51;100.00
62201;BME280;48197;42.732;27.192;2023-05-20T07:30:48;99816.69;;;19.42;100.00
62201;BME280;48197;42.732;27.192;2023-05-20T07:33:15;99816.94;;;21.34;100.00
62201;BME280;48197;42.732;27.192;2023-05-20T07:35:43;99812.84;;;22.61;100.00
62201;BME280;48197;42.732;27.192;2023-05-20T07:38:10;99814.72;;;23.30;100.00
62201;BME280;48197;42.732;27.192;2023-05-20T07:40:38;99819.03;;;23.25;100.00
62201;BME280;48197;42.732;27.192;2023-05-20T07:43:06;99812.47;;;22.69;100.00
62201;BME280;48197;42.732;27.192;2023-05-20T07:45:36;99808.97;;;21.66;100.00
62201;BME280;48197;42.732;27.192;2023-05-20T07:48:04;99821.41;;;20.74;100.00
62201;BME280;48197;42.732;27.192;2023-05-20T07:50:32;99812.22;;;20.55;100.00
62201;BME280;48197;42.732;27.192;2023-05-20T07:52:59;99818.19;;;21.00;100.00
62201;BME280;48197;42.732;27.192;2023-05-20T07:55:26;99810.22;;;21.65;100.00
62201;BME280;48197;42.732;27.192;2023-05-20T07:57:53;99799.69;;;22.14;100.00
62201;BME280;48197;42.732;27.192;2023-05-20T08:00:20;99809.31;;;22.22;100.00
62201;BME280;48197;42.732;27.192;2023-05-20T08:02:47;99800.72;;;22.55;100.00
62201;BME280;48197;42.732;27.192;2023-05-20T08:05:13;99820.53;;;23.06;100.00
62201;BME280;48197;42.732;27.192;2023-05-20T08:07:40;99817.88;;;22.87;100.00
62201;BME280;48197;42.732;27.192;2023-05-20T08:10:07;99814.91;;;22.07;100.00
62201;BME280;48197;42.732;27.192;2023-05-20T08:12:34;99812.31;;;21.22;100.00
62201;BME280;48197;42.732;27.192;2023-05-20T08:15:01;99825.94;;;20.63;100.00
62201;BME280;48197;42.732;27.192;2023-05-20T08:17:28;99822.66;;;20.46;100.00
62201;BME280;48197;42.732;27.192;2023-05-20T08:19:55;99818.28;;;20.63;100.00
62201;BME280;48197;42.732;27.192;2023-05-20T08:22:22;99829.13;;;21.31;100.00
62201;BME280;48197;42.732;27.192;2023-05-20T08:24:49;99820.88;;;21.61;100.00
62201;BME280;48197;42.732;27.192;2023-05-20T08:27:17;99825.94;;;21.72;99.23
62201;BME280;48197;42.732;27.192;2023-05-20T08:29:43;99836.34;;;22.05;100.00
62201;BME280;48197;42.732;27.192;2023-05-20T08:32:11;99827.31;;;22.39;99.97
62201;BME280;48197;42.732;27.192;2023-05-20T08:34:36;99828.69;;;22.44;100.00
62201;BME280;48197;42.732;27.192;2023-05-20T08:37:03;99817.03;;;21.73;99.62
62201;BME280;48197;42.732;27.192;2023-05-20T08:39:30;99838.34;;;21.32;100.00
62201;BME280;48197;42.732;27.192;2023-05-20T08:41:57;99847.09;;;20.91;100.00
62201;BME280;48197;42.732;27.192;2023-05-20T08:44:25;99823.41;;;20.83;100.00
62201;BME280;48197;42.732;27.192;2023-05-20T08:46:53;99830.41;;;20.88;100.00
62201;BME280;48197;42.732;27.192;2023-05-20T08:49:22;99830.47;;;21.12;100.00
62201;BME280;48197;42.732;27.192;2023-05-20T08:51:49;99824.84;;;21.12;100.00
62201;BME280;48197;42.732;27.192;2023-05-20T08:54:16;99845.44;;;20.66;100.00
62201;BME280;48197;42.732;27.192;2023-05-20T08:56:45;99833.16;;;20.17;100.00
62201;BME280;48197;42.732;27.192;2023-05-20T08:59:13;99834.16;;;19.55;100.00
62201;BME280;48197;42.732;27.192;2023-05-20T09:01:42;99843.66;;;19.58;100.00
62201;BME280;48197;42.732;27.192;2023-05-20T09:04:09;99851.69;;;19.87;100.00
62201;BME280;48197;42.732;27.192;2023-05-20T09:06:45;99845.75;;;19.85;100.00
62201;BME280;48197;42.732;27.192;2023-05-20T09:09:15;99843.88;;;19.82;100.00
62201;BME280;48197;42.732;27.192;2023-05-20T09:11:42;99841.56;;;19.81;100.00
62201;BME280;48197;42.732;27.192;2023-05-20T09:14:08;99848.75;;;20.18;100.00
62201;BME280;48197;42.732;27.192;2023-05-20T09:16:35;99830.97;;;20.03;100.00
62201;BME280;48197;42.732;27.192;2023-05-20T09:19:04;99836.25;;;19.83;100.00
62201;BME280;48197;42.732;27.192;2023-05-20T09:21:31;99832.19;;;19.74;100.00
62201;BME280;48197;42.732;27.192;2023-05-20T09:24:00;99837.25;;;19.57;100.00
62201;BME280;48197;42.732;27.192;2023-05-20T09:26:27;99833.53;;;19.61;100.00
62201;BME280;48197;42.732;27.192;2023-05-20T09:28:59;99825.31;;;19.75;100.00
62201;BME280;48197;42.732;27.192;2023-05-20T09:31:26;99832.75;;;19.60;100.00
62201;BME280;48197;42.732;27.192;2023-05-20T09:33:54;99843.53;;;19.71;100.00
62201;BME280;48197;42.732;27.192;2023-05-20T09:36:22;99843.53;;;19.71;100.00
62201;BME280;48197;42.732;27.192;2023-05-20T09:38:50;99834.97;;;19.65;100.00
62201;BME280;48197;42.732;27.192;2023-05-20T10:12:27;99867.97;;;18.67;100.00
62201;BME280;48197;42.732;27.192;2023-05-20T10:17:50;99865.28;;;17.85;100.00
62201;BME280;48197;42.732;27.192;2023-05-20T10:20:21;99865.53;;;17.65;100.00
62201;BME280;48197;42.732;27.192;2023-05-20T10:22:57;99873.94;;;17.52;100.00
62201;BME280;48197;42.732;27.192;2023-05-20T10:25:25;99874.81;;;17.23;100.00
62201;BME280;48197;42.732;27.192;2023-05-20T10:28:14;99863.09;;;17.03;100.00
62201;BME280;48197;42.732;27.192;2023-05-20T10:30:48;99857.84;;;16.92;100.00
62201;BME280;48197;42.732;27.192;2023-05-20T10:33:16;99857.78;;;16.79;100.00
62201;BME280;48197;42.732;27.192;2023-05-20T10:35:49;99847.59;;;16.72;100.00
62201;BME280;48197;42.732;27.192;2023-05-20T10:38:17;99849.06;;;16.35;100.00
62201;BME280;48197;42.732;27.192;2023-05-20T10:40:46;99853.47;;;16.20;100.00
62201;BME280;48197;42.732;27.192;2023-05-20T10:43:14;99844.25;;;16.06;100.00
62201;BME280;48197;42.732;27.192;2023-05-20T10:45:52;99839.91;;;16.05;100.00
62201;BME280;48197;42.732;27.192;2023-05-20T10:48:23;99843.00;;;16.24;100.00
62201;BME280;48197;42.732;27.192;2023-05-20T10:50:51;99850.63;;;16.36;100.00
62201;BME280;48197;42.732;27.192;2023-05-20T10:53:20;99852.72;;;16.32;100.00
62201;BME280;48197;42.732;27.192;2023-05-20T10:55:50;99856.56;;;16.09;100.00
62201;BME280;48197;42.732;27.192;2023-05-20T10:58:17;99847.09;;;15.90;100.00
62201;BME280;48197;42.732;27.192;2023-05-20T11:00:48;99848.06;;;15.83;100.00
62201;BME280;48197;42.732;27.192;2023-05-20T11:03:15;99844.44;;;15.99;100.00
62201;BME280;48197;42.732;27.192;2023-05-20T11:05:46;99836.41;;;16.18;100.00
62201;BME280;48197;42.732;27.192;2023-05-20T11:08:13;99829.53;;;16.35;100.00
62201;BME280;48197;42.732;27.192;2023-05-20T11:10:41;99829.81;;;16.53;100.00
62201;BME280;48197;42.732;27.192;2023-05-20T11:13:10;99818.72;;;16.79;100.00
62201;BME280;48197;42.732;27.192;2023-05-20T11:15:37;99817.63;;;17.02;100.00
62201;BME280;48197;42.732;27.192;2023-05-20T11:18:04;99820.63;;;17.33;100.00
62201;BME280;48197;42.732;27.192;2023-05-20T11:20:31;99810.03;;;17.76;100.00
62201;BME280;48197;42.732;27.192;2023-05-20T11:23:00;99816.38;;;18.46;100.00
62201;BME280;48197;42.732;27.192;2023-05-20T11:25:28;99807.91;;;18.90;100.00
62201;BME280;48197;42.732;27.192;2023-05-20T11:27:55;99806.75;;;19.50;100.00
62201;BME280;48197;42.732;27.192;2023-05-20T11:30:22;99806.00;;;20.33;100.00
62201;BME280;48197;42.732;27.192;2023-05-20T11:33:04;99797.34;;;21.16;100.00
62201;BME280;48197;42.732;27.192;2023-05-20T11:35:31;99791.44;;;21.71;100.00
62201;BME280;48197;42.732;27.192;2023-05-20T11:38:01;99780.63;;;22.33;100.00
62201;BME280;48197;42.732;27.192;2023-05-20T11:40:30;99779.44;;;22.39;100.00
62201;BME280;48197;42.732;27.192;2023-05-20T11:42:58;99776.81;;;22.36;100.00
62201;BME280;48197;42.732;27.192;2023-05-20T11:45:24;99771.41;;;22.08;100.00
62201;BME280;48197;42.732;27.192;2023-05-20T11:48:00;99761.81;;;22.00;100.00
62201;BME280;48197;42.732;27.192;2023-05-20T11:50:27;99760.75;;;22.12;100.00
62201;BME280;48197;42.732;27.192;2023-05-20T11:52:57;99761.38;;;22.46;100.00
62201;BME280;48197;42.732;27.192;2023-05-20T11:55:25;99751.84;;;22.73;100.00
62201;BME280;48197;42.732;27.192;2023-05-20T11:57:53;99759.63;;;22.49;100.00
62201;BME280;48197;42.732;27.192;2023-05-20T12:00:20;99750.81;;;22.56;100.00
62201;BME280;48197;42.732;27.192;2023-05-20T12:02:47;99741.19;;;22.62;100.00
62201;BME280;48197;42.732;27.192;2023-05-20T12:05:14;99740.69;;;23.14;100.00
62201;BME280;48197;42.732;27.192;2023-05-20T12:07:41;99737.72;;;23.79;100.00
62201;BME280;48197;42.732;27.192;2023-05-20T12:10:08;99734.28;;;23.96;100.00
62201;BME280;48197;42.732;27.192;2023-05-20T12:12:35;99729.22;;;24.58;100.00
62201;BME280;48197;42.732;27.192;2023-05-20T12:15:06;99719.22;;;26.25;100.00
62201;BME280;48197;42.732;27.192;2023-05-20T12:17:42;99716.97;;;27.50;100.00
62201;BME280;48197;42.732;27.192;2023-05-20T12:20:11;99713.56;;;28.76;100.00
62201;BME280;48197;42.732;27.192;2023-05-20T12:22:39;99707.59;;;29.04;96.00
62201;BME280;48197;42.732;27.192;2023-05-20T12:25:06;99693.13;;;28.53;91.79
62201;BME280;48197;42.732;27.192;2023-05-20T12:27:33;99689.22;;;28.56;88.56
62201;BME280;48197;42.732;27.192;2023-05-20T12:29:59;99689.41;;;27.98;76.57
62201;BME280;48197;42.732;27.192;2023-05-20T12:32:26;99692.78;;;28.26;76.32
62201;BME280;48197;42.732;27.192;2023-05-20T12:34:53;99670.19;;;28.40;75.46
62201;BME280;48197;42.732;27.192;2023-05-20T12:37:21;99663.50;;;28.92;76.18
62201;BME280;48197;42.732;27.192;2023-05-20T12:39:48;99664.16;;;29.47;75.83
62201;BME280;48197;42.732;27.192;2023-05-20T12:42:15;99644.63;;;29.76;73.18
62201;BME280;48197;42.732;27.192;2023-05-20T12:44:42;99649.84;;;29.53;65.44
62201;BME280;48197;42.732;27.192;2023-05-20T12:47:09;99652.78;;;29.47;64.07
62201;BME280;48197;42.732;27.192;2023-05-20T12:49:36;99649.69;;;29.45;64.84
62201;BME280;48197;42.732;27.192;2023-05-20T12:52:03;99649.16;;;29.28;63.93
62201;BME280;48197;42.732;27.192;2023-05-20T12:54:30;99638.16;;;29.38;64.54
62201;BME280;48197;42.732;27.192;2023-05-20T12:56:57;99638.25;;;28.34;62.73
62201;BME280;48197;42.732;27.192;2023-05-20T12:59:24;99638.66;;;27.77;67.46
62201;BME280;48197;42.732;27.192;2023-05-20T13:01:51;99627.41;;;28.02;68.31
62201;BME280;48197;42.732;27.192;2023-05-20T13:04:18;99626.38;;;27.58;69.43
62201;BME280;48197;42.732;27.192;2023-05-20T13:06:45;99625.66;;;26.87;68.69
62201;BME280;48197;42.732;27.192;2023-05-20T13:09:12;99623.41;;;26.63;68.96
62201;BME280;48197;42.732;27.192;2023-05-20T13:11:39;99632.88;;;26.83;67.39
62201;BME280;48197;42.732;27.192;2023-05-20T13:14:06;99631.09;;;27.44;67.50
62201;BME280;48197;42.732;27.192;2023-05-20T13:16:33;99631.91;;;28.46;65.33
62201;BME280;48197;42.732;27.192;2023-05-20T13:19:01;99623.13;;;28.75;64.07